createdAt,value
2022-11-12T00:00:08.706Z,99.00
2022-11-12T00:02:35.191Z,99.00
2022-11-12T00:05:01.689Z,98.90
2022-11-12T00:07:28.272Z,98.90
2022-11-12T00:09:54.804Z,98.90
2022-11-12T00:12:21.294Z,98.80
2022-11-12T00:14:47.788Z,98.70
2022-11-12T00:17:14.315Z,98.60
2022-11-12T00:19:40.807Z,98.40
2022-11-12T00:22:07.339Z,98.50
2022-11-12T00:24:33.836Z,98.40
2022-11-12T00:27:00.426Z,98.20
2022-11-12T00:29:26.929Z,98.20
2022-11-12T00:31:53.415Z,98.20
2022-11-12T00:34:19.935Z,98.10
2022-11-12T00:36:46.434Z,98.10
2022-11-12T00:39:12.903Z,98.20
2022-11-12T00:41:39.393Z,98.10
2022-11-12T00:44:05.916Z,97.90
2022-11-12T00:46:32.450Z,97.90
2022-11-12T00:48:58.946Z,98.00
2022-11-12T00:51:25.435Z,98.20
2022-11-12T00:53:51.924Z,98.30
2022-11-12T00:56:18.437Z,98.30
2022-11-12T00:58:45.032Z,98.40
2022-11-12T01:01:11.551Z,98.30
2022-11-12T01:03:38.108Z,98.30
2022-11-12T01:06:04.628Z,98.30
2022-11-12T01:08:31.164Z,98.20
2022-11-12T01:10:57.672Z,98.20
2022-11-12T01:13:24.161Z,98.10
2022-11-12T01:15:50.636Z,98.20
2022-11-12T01:18:17.137Z,98.10
2022-11-12T01:20:43.630Z,98.10
2022-11-12T01:23:10.179Z,98.10
2022-11-12T01:25:36.641Z,98.30
2022-11-12T01:28:03.112Z,98.20
2022-11-12T01:30:29.629Z,98.20
2022-11-12T01:32:56.115Z,98.10
2022-11-12T01:35:22.673Z,98.10
2022-11-12T01:37:49.877Z,98.10
2022-11-12T01:40:16.725Z,98.00
2022-11-12T01:42:43.231Z,98.10
2022-11-12T01:45:09.707Z,98.10
2022-11-12T01:47:36.273Z,98.20
2022-11-12T01:50:02.775Z,98.30
2022-11-12T01:52:29.317Z,98.30
2022-11-12T01:54:55.790Z,98.30
2022-11-12T01:57:22.362Z,98.40
2022-11-12T01:59:48.936Z,98.50
2022-11-12T02:02:15.459Z,98.50
2022-11-12T02:04:41.965Z,98.60
2022-11-12T02:07:08.627Z,98.50
2022-11-12T02:09:35.147Z,98.50
2022-11-12T02:12:01.660Z,98.50
2022-11-12T02:14:28.172Z,98.50
2022-11-12T02:16:54.666Z,98.40
2022-11-12T02:19:21.133Z,98.50
2022-11-12T02:21:47.992Z,98.40
2022-11-12T02:24:15.597Z,98.40
2022-11-12T02:26:42.096Z,98.40
2022-11-12T02:29:08.583Z,98.40
2022-11-12T02:31:35.060Z,98.40
2022-11-12T02:34:01.541Z,98.50
2022-11-12T02:36:28.043Z,98.50
2022-11-12T02:38:54.632Z,98.40
2022-11-12T02:41:21.098Z,98.40
2022-11-12T02:43:47.632Z,98.40
2022-11-12T02:46:14.105Z,98.40
2022-11-12T02:48:40.656Z,98.40
2022-11-12T02:51:07.183Z,98.40
2022-11-12T02:53:34.008Z,98.50
2022-11-12T02:56:00.496Z,98.40
2022-11-12T02:58:27.325Z,98.50
2022-11-12T03:00:54.043Z,98.40
2022-11-12T03:03:20.587Z,98.30
2022-11-12T03:05:47.070Z,98.20
2022-11-12T03:08:13.594Z,98.10
2022-11-12T03:10:40.062Z,98.20
2022-11-12T03:13:06.590Z,98.10
2022-11-12T03:15:33.073Z,98.00
2022-11-12T03:17:59.614Z,97.80
2022-11-12T03:20:26.181Z,97.50
2022-11-12T03:22:52.671Z,97.40
2022-11-12T03:25:19.198Z,97.40
2022-11-12T03:27:45.717Z,97.30
2022-11-12T03:30:12.197Z,97.30
2022-11-12T03:32:38.701Z,97.30
2022-11-12T03:35:05.194Z,97.30
2022-11-12T03:37:31.805Z,97.10
2022-11-12T03:39:58.300Z,97.20
2022-11-12T03:42:24.771Z,97.10
2022-11-12T03:44:51.242Z,97.10
2022-11-12T03:47:17.789Z,97.10
2022-11-12T03:49:44.314Z,97.40
2022-11-12T03:52:10.811Z,97.40
2022-11-12T03:54:37.319Z,97.50
2022-11-12T03:57:04.340Z,97.60
2022-11-12T03:59:30.828Z,97.50
2022-11-12T04:01:57.375Z,97.50
2022-11-12T04:04:43.903Z,97.60
2022-11-12T04:07:28.943Z,97.50
2022-11-12T04:09:55.422Z,97.40
2022-11-12T04:12:40.559Z,97.40
2022-11-12T04:15:07.035Z,97.50
2022-11-12T04:17:52.403Z,97.40
2022-11-12T04:20:37.591Z,97.50
2022-11-12T04:23:04.112Z,97.60
2022-11-12T04:25:49.382Z,97.50
2022-11-12T04:28:15.898Z,97.70
2022-11-12T04:30:42.403Z,97.70
2022-11-12T04:33:08.955Z,97.70
2022-11-12T04:35:35.445Z,97.80
2022-11-12T04:38:01.995Z,97.80
2022-11-12T04:40:47.338Z,98.00
2022-11-12T04:43:32.474Z,98.00
2022-11-12T04:45:58.957Z,98.40
2022-11-12T04:48:26.004Z,98.20
2022-11-12T04:50:52.791Z,98.30
2022-11-12T04:53:19.342Z,98.30
2022-11-12T04:55:45.879Z,98.30
2022-11-12T04:58:12.374Z,98.30
2022-11-12T05:00:38.854Z,98.20
2022-11-12T05:03:05.383Z,98.30
2022-11-12T05:05:34.000Z,98.30
2022-11-12T05:08:00.862Z,98.10
2022-11-12T05:10:27.391Z,98.00
2022-11-12T05:12:53.878Z,98.10
2022-11-12T05:15:20.386Z,98.10
2022-11-12T05:17:46.931Z,98.10
2022-11-12T05:20:13.508Z,98.20
2022-11-12T05:22:45.865Z,98.30
2022-11-12T05:25:14.456Z,98.20
2022-11-12T05:27:40.977Z,98.40
2022-11-12T05:30:07.855Z,98.40
2022-11-12T05:32:34.408Z,98.50
2022-11-12T05:35:00.925Z,98.40
2022-11-12T05:37:27.438Z,98.50
2022-11-12T05:39:54.028Z,98.50
2022-11-12T05:42:20.575Z,98.50
2022-11-12T05:44:47.116Z,98.50
2022-11-12T05:47:13.700Z,98.60
2022-11-12T05:49:40.299Z,98.50
2022-11-12T05:52:06.788Z,98.50
2022-11-12T05:54:33.295Z,98.60
2022-11-12T05:56:59.817Z,98.60
2022-11-12T06:02:00.869Z,98.50
2022-11-12T06:04:27.789Z,98.50
2022-11-12T06:06:54.339Z,98.60
2022-11-12T06:09:20.845Z,98.50
2022-11-12T06:11:47.318Z,98.50
2022-11-12T06:14:13.803Z,98.50
2022-11-12T06:16:40.335Z,98.40
2022-11-12T06:19:06.888Z,98.20
2022-11-12T06:21:33.407Z,98.10
2022-11-12T06:24:00.075Z,98.10
2022-11-12T06:26:26.648Z,98.00
2022-11-12T06:28:53.196Z,97.80
2022-11-12T06:31:19.789Z,97.70
2022-11-12T06:33:46.306Z,97.70
2022-11-12T06:36:12.810Z,97.70
2022-11-12T06:38:39.925Z,97.60
2022-11-12T06:41:06.424Z,97.60
2022-11-12T06:43:32.998Z,97.30
2022-11-12T06:45:59.910Z,97.30
2022-11-12T06:48:26.582Z,97.20
2022-11-12T06:50:53.199Z,97.40
2022-11-12T06:53:19.692Z,97.30
2022-11-12T06:55:46.190Z,97.30
2022-11-12T06:58:12.681Z,97.30
2022-11-12T07:00:39.156Z,97.20
2022-11-12T07:03:05.636Z,97.10
2022-11-12T07:05:32.110Z,97.10
2022-11-12T07:07:58.667Z,97.00
2022-11-12T07:10:25.406Z,96.90
2022-11-12T07:12:53.571Z,96.80
2022-11-12T07:15:20.232Z,96.90
2022-11-12T07:17:46.775Z,96.80
2022-11-12T07:20:13.392Z,96.80
2022-11-12T07:22:39.909Z,96.60
2022-11-12T07:25:06.389Z,96.60
2022-11-12T07:27:32.875Z,96.40
2022-11-12T07:29:59.364Z,96.30
2022-11-12T07:32:25.922Z,96.30
2022-11-12T07:34:52.398Z,96.10
2022-11-12T07:37:18.872Z,96.00
2022-11-12T07:39:45.396Z,95.90
2022-11-12T07:42:11.902Z,95.70
2022-11-12T07:44:38.406Z,95.50
2022-11-12T07:47:04.875Z,95.20
2022-11-12T07:49:31.479Z,95.20
2022-11-12T07:51:58.071Z,95.20
2022-11-12T07:54:24.559Z,95.20
2022-11-12T07:56:51.067Z,95.20
2022-11-12T07:59:17.656Z,94.90
2022-11-12T08:01:45.278Z,94.90
2022-11-12T08:04:12.075Z,94.80
2022-11-12T08:06:38.763Z,94.60
2022-11-12T08:09:05.387Z,94.40
2022-11-12T08:11:31.866Z,94.50
2022-11-12T08:13:58.427Z,94.10
2022-11-12T08:16:24.921Z,94.40
2022-11-12T08:18:51.449Z,94.50
2022-11-12T08:21:17.942Z,94.30
2022-11-12T08:23:44.447Z,94.10
2022-11-12T08:26:10.938Z,94.00
2022-11-12T08:28:37.426Z,93.80
2022-11-12T08:31:04.334Z,93.60
2022-11-12T08:33:30.836Z,93.00
2022-11-12T08:35:57.329Z,92.70
2022-11-12T08:38:23.913Z,92.40
2022-11-12T08:40:50.454Z,92.50
2022-11-12T08:43:16.933Z,92.10
2022-11-12T08:45:43.476Z,91.90
2022-11-12T08:48:09.972Z,91.70
2022-11-12T08:50:36.492Z,91.90
2022-11-12T08:53:02.979Z,91.80
2022-11-12T08:55:29.563Z,91.50
2022-11-12T08:57:59.166Z,90.90
2022-11-12T09:00:25.760Z,90.60
2022-11-12T09:02:52.243Z,91.20
2022-11-12T09:05:18.726Z,91.10
2022-11-12T09:07:50.290Z,91.60
2022-11-12T09:10:17.062Z,91.10
2022-11-12T09:12:43.535Z,91.00
2022-11-12T09:15:36.922Z,90.10
2022-11-12T09:17:56.748Z,90.00
2022-11-12T09:20:23.296Z,87.70
2022-11-12T09:22:49.861Z,88.10
2022-11-12T09:25:16.455Z,88.30
2022-11-12T09:27:48.129Z,89.50
2022-11-12T09:30:14.993Z,89.40
2022-11-12T09:32:41.510Z,88.80
2022-11-12T09:35:07.977Z,89.10
2022-11-12T09:37:34.479Z,88.40
2022-11-12T09:40:00.938Z,88.20
2022-11-12T09:42:27.527Z,87.90
2022-11-12T09:44:54.012Z,89.00
2022-11-12T09:47:20.500Z,88.90
2022-11-12T09:49:47.876Z,89.00
2022-11-12T09:52:14.533Z,87.20
2022-11-12T09:54:41.010Z,87.30
2022-11-12T09:57:07.534Z,87.00
2022-11-12T09:59:33.985Z,86.60
2022-11-12T10:02:00.490Z,85.90
2022-11-12T10:04:27.002Z,83.20
2022-11-12T10:06:53.517Z,84.80
2022-11-12T10:09:20.067Z,84.20
2022-11-12T10:12:05.482Z,84.90
2022-11-12T10:14:31.945Z,85.80
2022-11-12T10:16:58.414Z,85.00
2022-11-12T10:19:24.917Z,84.20
2022-11-12T10:21:51.414Z,84.40
2022-11-12T10:24:17.872Z,82.90
2022-11-12T10:26:44.329Z,85.50
2022-11-12T10:29:10.834Z,82.70
2022-11-12T10:31:37.357Z,81.60
2022-11-12T10:34:03.958Z,79.80
2022-11-12T10:36:30.550Z,79.50
2022-11-12T10:38:57.092Z,75.50
2022-11-12T10:41:23.671Z,74.30
2022-11-12T10:43:50.193Z,74.80
2022-11-12T10:46:16.674Z,74.50
2022-11-12T10:48:43.150Z,74.00
2022-11-12T10:51:09.635Z,74.60
2022-11-12T10:53:36.122Z,71.70
2022-11-12T10:56:02.617Z,72.90
2022-11-12T10:58:29.531Z,72.70
2022-11-12T11:00:56.292Z,73.00
2022-11-12T11:03:22.752Z,72.50
2022-11-12T11:05:49.211Z,69.80
2022-11-12T11:08:15.751Z,71.00
2022-11-12T11:10:42.211Z,68.60
2022-11-12T11:13:08.715Z,70.00
2022-11-12T11:15:35.269Z,70.50
2022-11-12T11:18:01.882Z,70.10
2022-11-12T11:20:28.836Z,68.50
2022-11-12T11:22:55.333Z,69.10
2022-11-12T11:25:21.835Z,69.90
2022-11-12T11:27:48.316Z,67.60
2022-11-12T11:30:15.672Z,67.40
2022-11-12T11:32:42.242Z,69.00
2022-11-12T11:35:08.717Z,66.90
2022-11-12T11:37:35.204Z,68.70
2022-11-12T11:40:02.151Z,68.20
2022-11-12T11:42:28.650Z,65.90
2022-11-12T11:44:55.160Z,68.30
2022-11-12T11:47:21.642Z,67.40
2022-11-12T11:49:48.180Z,65.80
2022-11-12T11:52:14.693Z,66.60
2022-11-12T11:54:41.420Z,67.10
2022-11-12T11:57:07.955Z,66.70
2022-11-12T11:59:34.455Z,67.00
2022-11-12T12:02:01.007Z,67.60
2022-11-12T12:04:27.491Z,68.00
2022-11-12T12:06:53.999Z,67.30
2022-11-12T12:09:20.549Z,71.40
2022-11-12T12:11:47.089Z,71.10
2022-11-12T12:14:13.578Z,70.80
2022-11-12T12:16:40.039Z,68.50
2022-11-12T12:19:06.557Z,67.40
2022-11-12T12:21:34.146Z,66.90
2022-11-12T12:24:00.657Z,69.30
2022-11-12T12:26:27.146Z,68.90
2022-11-12T12:28:53.670Z,67.00
2022-11-12T12:31:20.148Z,67.30
2022-11-12T12:33:46.683Z,67.30
2022-11-12T12:36:13.154Z,67.90
2022-11-12T12:38:39.728Z,65.40
2022-11-12T12:41:06.297Z,65.60
2022-11-12T12:43:32.800Z,65.80
2022-11-12T12:45:59.299Z,64.80
2022-11-12T12:48:26.197Z,65.50
2022-11-12T12:50:52.868Z,66.40
2022-11-12T12:53:19.437Z,64.80
2022-11-12T12:55:45.938Z,65.70
2022-11-12T12:58:12.444Z,66.00
2022-11-12T13:00:39.073Z,67.90
2022-11-12T13:03:05.678Z,68.50
2022-11-12T13:05:32.220Z,68.60
2022-11-12T13:07:58.713Z,66.80
2022-11-12T13:10:25.228Z,65.50
2022-11-12T13:12:51.764Z,64.30
2022-11-12T13:15:18.262Z,63.80
2022-11-12T13:17:44.847Z,63.70
2022-11-12T13:20:11.313Z,62.80
2022-11-12T13:22:37.840Z,63.50
2022-11-12T13:25:04.544Z,63.30
2022-11-12T13:27:31.038Z,64.60
2022-11-12T13:29:57.526Z,63.90
2022-11-12T13:32:24.044Z,64.90
2022-11-12T13:34:50.569Z,64.90
2022-11-12T13:37:17.091Z,63.30
2022-11-12T13:39:43.561Z,63.00
2022-11-12T13:42:28.914Z,65.30
2022-11-12T13:44:56.340Z,63.80
2022-11-12T13:47:24.725Z,64.30
2022-11-12T13:49:51.211Z,65.20
2022-11-12T13:52:17.718Z,64.20
2022-11-12T13:54:44.364Z,64.90
2022-11-12T13:57:14.308Z,66.00
2022-11-12T13:59:41.095Z,66.50
2022-11-12T14:02:07.576Z,67.40
2022-11-12T14:04:34.057Z,69.10
2022-11-12T14:07:00.605Z,67.80
2022-11-12T14:09:27.190Z,68.40
2022-11-12T14:11:53.808Z,68.90
2022-11-12T14:14:20.325Z,68.40
2022-11-12T14:16:46.787Z,69.50
2022-11-12T14:19:13.333Z,68.70
2022-11-12T14:21:39.834Z,69.40
2022-11-12T14:24:06.734Z,71.50
2022-11-12T14:26:33.201Z,70.90
2022-11-12T14:28:59.730Z,69.30
2022-11-12T14:31:26.315Z,69.40
2022-11-12T14:33:52.863Z,69.10
2022-11-12T14:36:19.382Z,68.10
2022-11-12T14:38:45.859Z,70.00
2022-11-12T14:41:12.321Z,69.20
2022-11-12T14:43:38.853Z,70.10
2022-11-12T14:46:05.422Z,68.00
2022-11-12T14:48:31.911Z,68.70
2022-11-12T14:50:58.411Z,68.40
2022-11-12T14:53:25.514Z,69.40
2022-11-12T14:55:52.076Z,69.50
2022-11-12T14:58:18.634Z,70.30
2022-11-12T15:00:45.218Z,70.60
2022-11-12T15:03:11.860Z,70.60
2022-11-12T15:05:43.797Z,72.10
2022-11-12T15:08:10.278Z,70.00
2022-11-12T15:10:36.865Z,69.70
2022-11-12T15:13:03.365Z,70.90
2022-11-12T15:15:29.837Z,69.80
2022-11-12T15:17:56.336Z,70.40
2022-11-12T15:20:22.839Z,71.10
2022-11-12T15:22:49.385Z,71.10
2022-11-12T15:25:15.950Z,70.90
2022-11-12T15:27:42.742Z,72.50
2022-11-12T15:30:09.221Z,71.50
2022-11-12T15:32:35.703Z,71.60
2022-11-12T15:35:05.160Z,71.30
2022-11-12T15:37:31.635Z,71.10
2022-11-12T15:39:58.134Z,72.00
2022-11-12T15:42:24.697Z,72.50
2022-11-12T15:44:57.017Z,72.70
2022-11-12T15:47:23.602Z,72.90
2022-11-12T15:49:50.097Z,72.90
2022-11-12T15:52:16.660Z,72.70
2022-11-12T15:54:43.134Z,72.40
2022-11-12T15:57:09.635Z,73.30
2022-11-12T15:59:36.186Z,72.90
2022-11-12T16:02:02.665Z,72.90
2022-11-12T16:04:29.162Z,73.20
2022-11-12T16:06:55.708Z,74.40
2022-11-12T16:09:22.288Z,75.20
2022-11-12T16:11:50.255Z,75.30
2022-11-12T16:14:18.911Z,74.60
2022-11-12T16:16:47.311Z,76.20
2022-11-12T16:19:14.768Z,75.80
2022-11-12T16:21:41.252Z,76.00
2022-11-12T16:24:07.778Z,76.40
2022-11-12T16:26:34.317Z,76.20
2022-11-12T16:29:00.857Z,75.60
2022-11-12T16:31:27.342Z,75.60
2022-11-12T16:33:53.843Z,76.40
2022-11-12T16:36:20.380Z,77.70
2022-11-12T16:38:47.048Z,78.80
2022-11-12T16:41:13.557Z,78.40
2022-11-12T16:43:40.092Z,77.00
2022-11-12T16:46:06.594Z,76.80
2022-11-12T16:48:33.188Z,77.50
2022-11-12T16:51:00.465Z,77.70
2022-11-12T16:53:27.205Z,78.60
2022-11-12T16:55:53.941Z,80.10
2022-11-12T16:58:20.549Z,80.60
2022-11-12T17:00:47.174Z,80.10
2022-11-12T17:03:14.043Z,79.70
2022-11-12T17:05:40.634Z,80.00
2022-11-12T17:08:07.132Z,80.10
2022-11-12T17:10:33.616Z,82.40
2022-11-12T17:13:00.239Z,81.90
2022-11-12T17:15:26.727Z,81.70
2022-11-12T17:17:53.292Z,81.90
2022-11-12T17:20:19.828Z,81.30
2022-11-12T17:22:46.320Z,81.60
2022-11-12T17:25:12.835Z,82.20
2022-11-12T17:27:39.336Z,82.70
2022-11-12T17:30:05.826Z,83.70
2022-11-12T17:32:32.318Z,85.00
2022-11-12T17:34:58.823Z,86.10
2022-11-12T17:37:25.421Z,86.30
2022-11-12T17:39:51.978Z,86.80
2022-11-12T17:42:19.246Z,87.10
2022-11-12T17:44:46.350Z,86.50
2022-11-12T17:47:12.841Z,86.40
2022-11-12T17:49:39.351Z,85.70
2022-11-12T17:52:05.828Z,85.70
2022-11-12T17:54:32.305Z,85.70
2022-11-12T17:56:58.805Z,85.40
2022-11-12T17:59:25.360Z,84.70
2022-11-12T18:01:51.963Z,85.60
2022-11-12T18:04:18.472Z,84.70
2022-11-12T18:06:45.039Z,84.80
2022-11-12T18:09:11.573Z,85.10
2022-11-12T18:11:38.088Z,84.70
2022-11-12T18:14:04.602Z,85.10
2022-11-12T18:16:31.114Z,85.30
2022-11-12T18:18:57.649Z,85.30
2022-11-12T18:21:24.152Z,84.50
2022-11-12T18:23:50.620Z,85.60
2022-11-12T18:26:18.290Z,86.10
2022-11-12T18:28:44.772Z,85.90
2022-11-12T18:31:11.268Z,86.10
2022-11-12T18:33:37.961Z,86.00
2022-11-12T18:36:04.460Z,85.80
2022-11-12T18:38:37.016Z,85.40
2022-11-12T18:41:03.595Z,85.20
2022-11-12T18:43:30.369Z,85.20
2022-11-12T18:46:01.263Z,85.50
2022-11-12T18:48:28.185Z,84.70
2022-11-12T18:50:54.723Z,83.70
2022-11-12T18:53:21.215Z,84.70
2022-11-12T18:55:47.832Z,84.40
2022-11-12T18:58:14.323Z,84.50
2022-11-12T19:00:40.811Z,85.20
2022-11-12T19:03:07.522Z,85.10
2022-11-12T19:05:34.203Z,84.80
2022-11-12T19:08:00.882Z,85.20
2022-11-12T19:10:27.473Z,84.20
2022-11-12T19:12:54.035Z,84.30
2022-11-12T19:15:25.526Z,84.40
2022-11-12T19:17:53.351Z,84.40
2022-11-12T19:20:19.858Z,84.80
2022-11-12T19:22:46.361Z,85.30
2022-11-12T19:25:12.922Z,85.10
2022-11-12T19:27:39.496Z,85.30
2022-11-12T19:30:06.832Z,84.60
2022-11-12T19:32:33.419Z,84.30
2022-11-12T19:34:59.943Z,83.50
2022-11-12T19:37:33.503Z,83.20
2022-11-12T19:40:00.674Z,82.70
2022-11-12T19:42:27.213Z,82.20
2022-11-12T19:44:53.757Z,82.40
2022-11-12T19:47:20.277Z,82.50
2022-11-12T19:49:46.737Z,82.00
2022-11-12T19:52:13.314Z,78.30
2022-11-12T19:54:39.858Z,78.90
2022-11-12T19:57:06.360Z,78.30
2022-11-12T19:59:32.902Z,76.30
2022-11-12T20:01:59.434Z,75.10
2022-11-12T20:04:26.000Z,74.60
2022-11-12T20:06:52.551Z,74.90
2022-11-12T20:09:19.163Z,74.30
2022-11-12T20:11:45.680Z,74.40
2022-11-12T20:14:12.352Z,73.40
2022-11-12T20:16:39.516Z,73.70
2022-11-12T20:19:06.079Z,72.20
2022-11-12T20:21:32.581Z,72.90
2022-11-12T20:23:59.221Z,72.50
2022-11-12T20:26:26.755Z,71.70
2022-11-12T20:28:53.585Z,71.90
2022-11-12T20:31:20.790Z,71.50
2022-11-12T20:33:47.601Z,71.70
2022-11-12T20:36:14.135Z,71.00
2022-11-12T20:38:40.707Z,71.40
2022-11-12T20:41:07.658Z,71.20
2022-11-12T20:43:34.245Z,70.70
2022-11-12T20:46:01.211Z,71.20
2022-11-12T20:48:27.989Z,71.70
2022-11-12T20:51:21.617Z,70.70
2022-11-12T20:53:41.771Z,71.20
2022-11-12T20:56:08.642Z,70.70
2022-11-12T20:58:35.141Z,70.60
2022-11-12T21:01:01.932Z,70.00
2022-11-12T21:03:28.681Z,69.40
2022-11-12T21:05:55.267Z,70.10
2022-11-12T21:08:21.790Z,69.90
2022-11-12T21:10:48.337Z,68.70
2022-11-12T21:13:15.927Z,69.00
2022-11-12T21:15:42.379Z,68.90
2022-11-12T21:18:08.948Z,69.20
2022-11-12T21:20:35.437Z,68.80
2022-11-12T21:23:01.895Z,68.90
2022-11-12T21:25:28.426Z,69.30
2022-11-12T21:27:55.043Z,70.10
2022-11-12T21:30:21.561Z,70.00
2022-11-12T21:32:48.361Z,70.10
2022-11-12T21:35:15.115Z,69.80
2022-11-12T21:37:41.856Z,70.50
2022-11-12T21:40:08.372Z,70.30
2022-11-12T21:42:34.951Z,69.70
2022-11-12T21:45:01.460Z,70.10
2022-11-12T21:47:28.877Z,69.90
2022-11-12T21:49:55.375Z,70.70
2022-11-12T21:52:21.848Z,69.50
2022-11-12T21:54:48.413Z,69.60
2022-11-12T21:57:18.636Z,68.90
2022-11-12T21:59:45.455Z,69.70
2022-11-12T22:02:11.964Z,69.70
2022-11-12T22:04:38.530Z,69.40
2022-11-12T22:07:05.046Z,69.60
2022-11-12T22:09:31.574Z,70.00
2022-11-12T22:11:58.079Z,70.20
2022-11-12T22:14:24.599Z,70.00
2022-11-12T22:16:51.153Z,70.40
2022-11-12T22:19:19.279Z,69.40
2022-11-12T22:21:45.770Z,70.00
2022-11-12T22:24:12.366Z,69.70
2022-11-12T22:26:38.854Z,70.10
2022-11-12T22:29:05.701Z,70.60
2022-11-12T22:31:32.309Z,70.30
2022-11-12T22:33:58.826Z,70.30
2022-11-12T22:36:25.482Z,70.80
2022-11-12T22:38:52.024Z,70.40
2022-11-12T22:41:18.519Z,70.20
2022-11-12T22:43:45.033Z,70.30
2022-11-12T22:46:11.528Z,70.10
2022-11-12T22:48:38.027Z,69.60
2022-11-12T22:51:04.639Z,69.50
2022-11-12T22:53:31.260Z,69.60
2022-11-12T22:55:57.784Z,69.80
2022-11-12T22:58:24.420Z,70.80
2022-11-12T23:00:51.049Z,70.60
2022-11-12T23:03:17.536Z,70.60
2022-11-12T23:05:44.025Z,71.10
2022-11-12T23:08:10.592Z,72.10
2022-11-12T23:10:40.396Z,71.00
2022-11-12T23:13:09.524Z,71.50
2022-11-12T23:15:36.010Z,71.70
2022-11-12T23:18:02.549Z,71.50
2022-11-12T23:20:29.111Z,71.30
2022-11-12T23:22:55.602Z,72.10
2022-11-12T23:25:22.237Z,71.50
2022-11-12T23:27:48.741Z,71.80
2022-11-12T23:30:15.271Z,72.20
2022-11-12T23:32:41.782Z,72.90
2022-11-12T23:35:08.312Z,72.30
2022-11-12T23:37:34.782Z,73.00
2022-11-12T23:40:01.323Z,73.70
2022-11-12T23:42:27.846Z,73.00
2022-11-12T23:44:54.412Z,73.30
2022-11-12T23:47:20.905Z,73.90
2022-11-12T23:49:47.381Z,75.00
2022-11-12T23:52:13.850Z,74.60
2022-11-12T23:54:40.323Z,72.40
2022-11-12T23:57:06.869Z,73.00
2022-11-12T23:59:33.347Z,72.50
